createdAt,value
2023-02-03T00:00:48.029Z,56.58
2023-02-03T00:03:15.823Z,54.59
2023-02-03T00:05:43.016Z,55.00
2023-02-03T00:08:10.132Z,53.59
2023-02-03T00:10:37.697Z,53.17
2023-02-03T00:13:04.880Z,54.07
2023-02-03T00:15:32.123Z,54.13
2023-02-03T00:17:59.521Z,53.93
2023-02-03T00:20:27.310Z,52.50
2023-02-03T00:22:54.683Z,53.09
2023-02-03T00:25:22.137Z,54.12
2023-02-03T00:27:49.308Z,54.54
2023-02-03T00:30:16.583Z,55.50
2023-02-03T00:32:44.099Z,54.53
2023-02-03T00:35:12.026Z,51.91
2023-02-03T00:37:39.156Z,52.61
2023-02-03T00:40:07.604Z,53.25
2023-02-03T00:42:35.536Z,51.69
2023-02-03T00:45:02.751Z,52.33
2023-02-03T00:47:30.149Z,51.62
2023-02-03T00:49:58.065Z,53.22
2023-02-03T00:52:25.386Z,51.50
2023-02-03T00:54:52.782Z,49.97
2023-02-03T00:57:19.935Z,50.53
2023-02-03T00:59:47.084Z,49.26
2023-02-03T01:02:14.635Z,52.20
2023-02-03T01:04:41.811Z,50.83
2023-02-03T01:07:09.181Z,50.33
2023-02-03T01:09:36.973Z,52.09
2023-02-03T01:12:04.729Z,51.16
2023-02-03T01:14:32.037Z,54.64
2023-02-03T01:17:00.198Z,51.77
2023-02-03T01:19:27.411Z,50.14
2023-02-03T01:21:54.520Z,50.99
2023-02-03T01:24:22.399Z,49.00
2023-02-03T01:26:49.515Z,49.12
2023-02-03T01:29:16.600Z,48.53
2023-02-03T01:31:44.130Z,46.15
2023-02-03T01:34:12.214Z,46.21
2023-02-03T01:36:39.297Z,45.57
2023-02-03T01:39:06.750Z,44.89
2023-02-03T01:41:34.953Z,45.02
2023-02-03T01:44:02.386Z,44.36
2023-02-03T01:46:39.944Z,45.33
2023-02-03T01:49:06.979Z,45.47
2023-02-03T01:51:34.426Z,45.15
2023-02-03T01:54:01.572Z,45.29
2023-02-03T01:56:29.159Z,44.32
2023-02-03T01:58:58.980Z,44.79
2023-02-03T02:01:26.296Z,44.15
2023-02-03T02:03:54.634Z,44.75
2023-02-03T02:06:21.722Z,44.40
2023-02-03T02:08:49.431Z,44.46
2023-02-03T02:11:21.534Z,43.83
2023-02-03T02:13:49.246Z,44.53
2023-02-03T02:16:16.668Z,44.35
2023-02-03T02:18:47.000Z,44.78
2023-02-03T02:21:37.434Z,43.92
2023-02-03T02:24:22.938Z,44.31
2023-02-03T02:27:09.049Z,43.90
2023-02-03T02:29:43.233Z,43.70
2023-02-03T02:32:31.156Z,44.52
2023-02-03T02:35:03.347Z,45.01
2023-02-03T02:37:42.903Z,46.19
2023-02-03T02:40:10.521Z,46.84
2023-02-03T02:42:39.840Z,46.42
2023-02-03T02:45:36.452Z,45.30
2023-02-03T02:48:10.583Z,46.00
2023-02-03T02:50:39.434Z,47.52
2023-02-03T02:53:06.830Z,45.17
2023-02-03T02:55:34.249Z,44.64
2023-02-03T02:58:04.377Z,46.76
2023-02-03T03:00:32.070Z,46.64
2023-02-03T03:03:07.053Z,45.75
2023-02-03T03:05:34.545Z,47.75
2023-02-03T03:08:02.962Z,47.15
2023-02-03T03:10:30.637Z,46.79
2023-02-03T03:12:59.483Z,45.81
2023-02-03T03:15:27.923Z,45.15
2023-02-03T03:17:56.857Z,45.70
2023-02-03T03:20:25.639Z,45.88
2023-02-03T03:22:55.158Z,46.02
2023-02-03T03:25:24.575Z,46.85
2023-02-03T03:27:53.765Z,46.71
2023-02-03T03:30:22.748Z,46.33
2023-02-03T03:32:50.085Z,48.84
2023-02-03T03:35:17.483Z,47.31
2023-02-03T03:37:45.693Z,47.84
2023-02-03T03:40:12.972Z,46.22
2023-02-03T03:42:49.525Z,46.37
2023-02-03T03:45:20.775Z,47.35
2023-02-03T03:47:53.041Z,45.92
2023-02-03T03:50:22.083Z,46.38
2023-02-03T03:52:49.627Z,46.58
2023-02-03T03:55:16.988Z,45.88
2023-02-03T03:57:53.150Z,45.43
2023-02-03T04:00:20.539Z,46.31
2023-02-03T04:02:49.366Z,46.16
2023-02-03T04:05:16.524Z,45.40
2023-02-03T04:07:44.970Z,44.06
2023-02-03T04:10:22.540Z,43.56
2023-02-03T04:12:49.621Z,43.25
2023-02-03T04:15:17.008Z,43.04
2023-02-03T04:17:44.149Z,43.15
2023-02-03T04:20:11.618Z,43.03
2023-02-03T04:22:39.115Z,44.63
2023-02-03T04:25:06.379Z,43.18
2023-02-03T04:27:33.963Z,45.53
2023-02-03T04:30:01.388Z,45.66
2023-02-03T04:32:28.584Z,45.86
2023-02-03T04:34:55.689Z,44.96
2023-02-03T04:37:23.151Z,44.64
2023-02-03T04:39:52.170Z,44.35
2023-02-03T04:42:19.401Z,43.30
2023-02-03T04:44:46.796Z,45.23
2023-02-03T04:47:14.080Z,43.59
2023-02-03T04:49:41.201Z,43.73
2023-02-03T04:52:08.809Z,43.89
2023-02-03T04:54:36.120Z,43.01
2023-02-03T04:57:03.572Z,41.04
2023-02-03T04:59:30.975Z,41.14
2023-02-03T05:01:58.281Z,40.60
2023-02-03T05:04:25.454Z,40.71
2023-02-03T05:06:52.835Z,39.34
2023-02-03T05:09:20.016Z,38.66
2023-02-03T05:11:47.214Z,38.63
2023-02-03T05:14:14.606Z,39.74
2023-02-03T05:16:42.005Z,39.59
2023-02-03T05:19:09.166Z,38.99
2023-02-03T05:21:36.610Z,39.57
2023-02-03T05:24:06.917Z,40.33
2023-02-03T05:26:34.763Z,41.59
2023-02-03T05:29:02.402Z,41.55
2023-02-03T05:31:29.608Z,41.28
2023-02-03T05:33:56.774Z,42.12
2023-02-03T05:36:24.234Z,40.71
2023-02-03T05:38:51.379Z,41.57
2023-02-03T05:41:37.160Z,42.00
2023-02-03T05:44:04.621Z,42.08
2023-02-03T05:46:31.784Z,42.96
2023-02-03T05:48:58.939Z,42.33
2023-02-03T05:51:26.431Z,42.47
2023-02-03T05:53:53.814Z,41.71
2023-02-03T05:56:20.977Z,42.10
2023-02-03T05:58:48.456Z,42.36
2023-02-03T06:01:15.580Z,41.95
2023-02-03T06:03:45.802Z,41.98
2023-02-03T06:06:13.413Z,41.16
2023-02-03T06:08:40.557Z,42.10
2023-02-03T06:11:07.966Z,41.95
2023-02-03T06:13:35.188Z,41.39
2023-02-03T06:16:02.344Z,41.27
2023-02-03T06:18:29.938Z,41.97
2023-02-03T06:20:57.116Z,41.76
2023-02-03T06:23:24.272Z,41.79
2023-02-03T06:25:52.023Z,41.57
2023-02-03T06:28:19.355Z,42.62
2023-02-03T06:30:49.514Z,41.70
2023-02-03T06:33:16.944Z,42.31
2023-02-03T06:35:44.087Z,41.60
2023-02-03T06:38:11.282Z,41.70
2023-02-03T06:40:38.715Z,42.41
2023-02-03T06:43:05.986Z,41.56
2023-02-03T06:45:33.157Z,40.67
2023-02-03T06:48:00.607Z,41.20
2023-02-03T06:50:28.029Z,41.87
2023-02-03T06:52:55.321Z,40.98
2023-02-03T06:55:22.662Z,41.68
2023-02-03T06:57:49.818Z,41.83
2023-02-03T07:00:25.463Z,41.27
2023-02-03T07:02:53.614Z,41.36
2023-02-03T07:05:21.206Z,41.12
2023-02-03T07:07:48.383Z,41.08
2023-02-03T07:10:15.878Z,41.26
2023-02-03T07:12:43.184Z,40.77
2023-02-03T07:15:10.957Z,40.83
2023-02-03T07:17:38.326Z,40.83
2023-02-03T07:20:06.097Z,40.72
2023-02-03T07:22:33.247Z,40.73
2023-02-03T07:25:00.650Z,42.13
2023-02-03T07:27:29.699Z,41.87
2023-02-03T07:29:56.800Z,41.74
2023-02-03T07:32:24.212Z,42.03
2023-02-03T07:34:51.328Z,42.30
2023-02-03T07:37:18.456Z,41.69
2023-02-03T07:39:46.213Z,41.39
2023-02-03T07:42:13.408Z,42.74
2023-02-03T07:44:43.606Z,41.68
2023-02-03T07:47:12.519Z,41.91
2023-02-03T07:49:39.969Z,41.27
2023-02-03T07:52:07.135Z,41.70
2023-02-03T07:54:34.482Z,41.01
2023-02-03T07:57:01.663Z,40.48
2023-02-03T07:59:28.821Z,40.71
2023-02-03T08:01:56.393Z,40.69
2023-02-03T08:04:24.413Z,40.70
2023-02-03T08:06:51.610Z,41.49
2023-02-03T08:09:18.760Z,40.62
2023-02-03T08:11:46.235Z,40.73
2023-02-03T08:14:13.307Z,40.96
2023-02-03T08:16:40.447Z,40.77
2023-02-03T08:19:07.847Z,40.63
2023-02-03T08:21:35.806Z,42.66
2023-02-03T08:24:02.892Z,41.35
2023-02-03T08:26:30.310Z,42.17
2023-02-03T08:28:57.452Z,41.88
2023-02-03T08:31:24.724Z,41.30
2023-02-03T08:33:52.242Z,40.75
2023-02-03T08:36:19.380Z,40.99
2023-02-03T08:38:46.535Z,41.10
2023-02-03T08:41:16.076Z,41.22
2023-02-03T08:43:43.646Z,41.81
2023-02-03T08:46:11.775Z,41.20
2023-02-03T08:48:39.382Z,42.02
2023-02-03T08:51:09.907Z,41.65
2023-02-03T08:53:37.065Z,42.79
2023-02-03T08:56:05.635Z,43.02
2023-02-03T08:58:32.788Z,43.67
2023-02-03T09:01:25.972Z,44.20
2023-02-03T09:03:53.527Z,45.57
2023-02-03T09:06:22.788Z,49.56
2023-02-03T09:08:50.967Z,48.75
2023-02-03T09:11:18.535Z,49.97
2023-02-03T09:13:46.069Z,49.87
2023-02-03T09:16:13.636Z,49.32
2023-02-03T09:18:41.118Z,49.53
2023-02-03T09:21:08.653Z,49.79
2023-02-03T09:23:35.975Z,48.97
2023-02-03T09:26:04.182Z,48.81
2023-02-03T09:28:31.614Z,48.82
2023-02-03T09:31:02.267Z,48.80
2023-02-03T09:33:29.771Z,49.10
2023-02-03T09:35:57.354Z,48.44
2023-02-03T09:38:24.648Z,48.27
2023-02-03T09:40:59.998Z,48.21
2023-02-03T09:43:55.063Z,48.96
2023-02-03T09:46:23.057Z,48.61
2023-02-03T09:48:55.166Z,49.01
2023-02-03T09:51:23.555Z,49.59
2023-02-03T09:54:13.945Z,50.58
2023-02-03T09:56:41.457Z,51.92
2023-02-03T09:59:08.660Z,51.73
2023-02-03T10:01:41.407Z,51.64
2023-02-03T10:04:15.223Z,51.34
2023-02-03T10:06:43.835Z,51.17
2023-02-03T10:09:14.167Z,51.17
2023-02-03T10:11:49.801Z,52.36
2023-02-03T10:14:21.355Z,54.30
2023-02-03T10:16:54.484Z,54.34
2023-02-03T10:19:23.300Z,55.19
2023-02-03T10:21:52.144Z,57.63
2023-02-03T10:24:20.511Z,57.40
2023-02-03T10:26:47.970Z,58.82
2023-02-03T10:29:32.555Z,58.41
2023-02-03T10:32:00.510Z,59.01
2023-02-03T10:34:27.887Z,62.24
2023-02-03T10:36:57.897Z,60.56
2023-02-03T10:39:30.611Z,61.09
2023-02-03T10:41:57.860Z,60.67
2023-02-03T10:44:26.519Z,62.18
2023-02-03T10:46:53.960Z,61.17
2023-02-03T10:49:22.418Z,61.72
2023-02-03T10:51:50.870Z,60.66
2023-02-03T10:54:34.560Z,58.74
2023-02-03T10:57:03.731Z,58.93
2023-02-03T10:59:31.795Z,61.12
2023-02-03T11:01:59.052Z,60.00
2023-02-03T11:04:27.603Z,58.93
2023-02-03T11:07:04.171Z,57.39
2023-02-03T11:09:41.432Z,55.65
2023-02-03T11:12:13.292Z,54.71
2023-02-03T11:14:44.433Z,58.55
2023-02-03T11:17:19.043Z,61.47
2023-02-03T11:19:46.902Z,59.43
2023-02-03T11:22:14.885Z,57.65
2023-02-03T11:24:42.124Z,55.54
2023-02-03T11:27:16.176Z,54.78
2023-02-03T11:29:44.515Z,56.03
2023-02-03T11:32:27.332Z,61.59
2023-02-03T11:34:58.129Z,61.02
2023-02-03T11:37:26.060Z,65.56
2023-02-03T11:40:18.098Z,67.83
2023-02-03T11:42:51.480Z,68.09
2023-02-03T11:45:18.628Z,68.50
2023-02-03T11:47:50.097Z,67.36
2023-02-03T11:50:19.714Z,72.05
2023-02-03T11:52:59.281Z,69.72
2023-02-03T11:55:33.054Z,68.33
2023-02-03T11:58:06.495Z,67.12
2023-02-03T12:00:36.648Z,66.07
2023-02-03T12:03:04.103Z,64.96
2023-02-03T12:05:37.312Z,65.04
2023-02-03T12:08:16.828Z,64.20
2023-02-03T12:10:43.969Z,63.90
2023-02-03T12:13:12.265Z,62.45
2023-02-03T12:15:39.408Z,59.93
2023-02-03T12:18:06.529Z,61.19
2023-02-03T12:20:52.608Z,61.19
2023-02-03T12:23:38.822Z,59.63
2023-02-03T12:26:25.633Z,60.30
2023-02-03T12:28:58.147Z,59.24
2023-02-03T12:31:38.135Z,59.76
2023-02-03T12:34:19.350Z,59.08
2023-02-03T12:36:48.688Z,58.93
2023-02-03T12:39:18.194Z,61.62
2023-02-03T12:41:48.982Z,60.62
2023-02-03T12:44:18.519Z,59.04
2023-02-03T12:46:48.546Z,58.16
2023-02-03T12:49:18.825Z,56.22
2023-02-03T12:51:49.061Z,55.58
2023-02-03T12:54:22.243Z,55.00
2023-02-03T12:56:49.694Z,56.04
2023-02-03T12:59:18.662Z,55.73
2023-02-03T13:01:48.251Z,55.74
2023-02-03T13:04:21.425Z,55.88
2023-02-03T13:06:50.311Z,58.29
2023-02-03T13:09:23.949Z,57.60
2023-02-03T13:11:54.159Z,56.84
2023-02-03T13:14:41.292Z,56.50
2023-02-03T13:17:10.943Z,57.47
2023-02-03T13:19:49.400Z,55.96
2023-02-03T13:22:17.347Z,62.37
2023-02-03T13:24:49.041Z,58.50
2023-02-03T13:27:22.451Z,57.29
2023-02-03T13:30:02.495Z,56.82
2023-02-03T13:32:34.165Z,61.55
2023-02-03T13:35:01.597Z,62.56
2023-02-03T13:37:31.975Z,60.76
2023-02-03T13:40:06.018Z,60.26
2023-02-03T13:42:41.003Z,59.64
2023-02-03T13:45:28.566Z,61.95
2023-02-03T13:47:57.071Z,61.74
2023-02-03T13:50:25.174Z,62.71
2023-02-03T13:52:57.249Z,64.84
2023-02-03T13:55:33.890Z,64.17
2023-02-03T13:58:01.085Z,61.56
2023-02-03T14:00:44.028Z,62.98
2023-02-03T14:03:18.280Z,62.96
2023-02-03T14:05:49.193Z,64.39
2023-02-03T14:08:26.017Z,63.47
2023-02-03T14:11:11.632Z,62.82
2023-02-03T14:13:39.095Z,65.31
2023-02-03T14:16:23.577Z,64.36
2023-02-03T14:18:51.215Z,66.05
2023-02-03T14:21:19.729Z,63.42
2023-02-03T14:23:51.588Z,63.13
2023-02-03T14:26:42.510Z,64.93
2023-02-03T14:29:10.949Z,65.23
2023-02-03T14:31:57.536Z,65.80
2023-02-03T14:34:43.638Z,67.43
2023-02-03T14:37:11.463Z,67.14
2023-02-03T14:39:57.761Z,67.19
2023-02-03T14:42:36.851Z,65.43
2023-02-03T14:45:04.123Z,67.72
2023-02-03T14:47:38.548Z,67.20
2023-02-03T14:50:09.456Z,67.95
2023-02-03T14:52:41.610Z,68.12
2023-02-03T14:55:08.938Z,67.50
2023-02-03T14:57:39.095Z,68.00
2023-02-03T15:00:06.386Z,67.32
2023-02-03T15:02:33.981Z,67.03
2023-02-03T15:05:14.028Z,67.32
2023-02-03T15:07:49.271Z,67.32
2023-02-03T15:10:16.790Z,65.19
2023-02-03T15:12:45.120Z,63.29
2023-02-03T15:15:13.363Z,63.60
2023-02-03T15:17:40.967Z,63.56
2023-02-03T15:20:20.466Z,64.71
2023-02-03T15:22:48.047Z,63.25
2023-02-03T15:25:19.392Z,63.60
2023-02-03T15:27:46.603Z,64.16
2023-02-03T15:30:14.838Z,62.79
2023-02-03T15:32:43.308Z,63.65
2023-02-03T15:35:11.690Z,64.22
2023-02-03T15:37:46.589Z,61.76
2023-02-03T15:40:13.841Z,62.90
2023-02-03T15:42:44.786Z,61.90
2023-02-03T15:45:12.135Z,61.99
2023-02-03T15:47:40.914Z,62.19
2023-02-03T15:50:15.334Z,61.08
2023-02-03T15:52:42.519Z,60.43
2023-02-03T15:55:17.775Z,61.52
2023-02-03T15:57:47.178Z,60.56
2023-02-03T16:00:26.330Z,62.54
2023-02-03T16:02:53.909Z,62.94
2023-02-03T16:05:28.603Z,61.60
2023-02-03T16:07:56.307Z,62.43
2023-02-03T16:10:28.965Z,60.11
2023-02-03T16:13:15.148Z,60.54
2023-02-03T16:15:42.363Z,61.57
2023-02-03T16:18:13.133Z,60.35
2023-02-03T16:20:42.799Z,60.74
2023-02-03T16:23:20.484Z,60.60
2023-02-03T16:26:08.099Z,60.40
2023-02-03T16:28:54.454Z,62.52
2023-02-03T16:31:40.348Z,63.96
2023-02-03T16:34:34.156Z,63.33
2023-02-03T16:37:20.274Z,64.23
2023-02-03T16:40:06.417Z,64.19
2023-02-03T16:42:56.792Z,65.60
2023-02-03T16:45:43.165Z,64.57
2023-02-03T16:48:29.852Z,64.14
2023-02-03T16:50:59.617Z,65.17
2023-02-03T16:53:28.925Z,66.52
2023-02-03T16:55:56.880Z,66.41
2023-02-03T16:58:24.310Z,66.08
2023-02-03T17:00:52.146Z,68.43
2023-02-03T17:03:23.636Z,67.69
2023-02-03T17:05:51.217Z,67.59
2023-02-03T17:08:19.323Z,66.95
2023-02-03T17:10:48.081Z,66.66
2023-02-03T17:13:15.788Z,66.44
2023-02-03T17:15:43.975Z,65.57
2023-02-03T17:18:11.616Z,66.55
2023-02-03T17:20:38.944Z,67.34
2023-02-03T17:23:06.174Z,67.59
2023-02-03T17:25:35.948Z,66.87
2023-02-03T17:28:03.849Z,66.37
2023-02-03T17:30:35.152Z,66.28
2023-02-03T17:33:03.117Z,66.34
2023-02-03T17:35:30.885Z,67.76
2023-02-03T17:37:58.575Z,69.76
2023-02-03T17:54:16.715Z,66.85
2023-02-03T17:56:47.477Z,68.36
2023-02-03T17:59:15.022Z,70.21
2023-02-03T18:01:42.518Z,70.16
2023-02-03T18:04:10.581Z,69.97
2023-02-03T18:06:38.025Z,68.39
2023-02-03T18:09:06.843Z,68.08
2023-02-03T18:11:35.137Z,68.46
2023-02-03T18:14:02.927Z,66.89
2023-02-03T18:16:33.104Z,67.18
2023-02-03T18:19:01.237Z,65.56
2023-02-03T18:21:28.637Z,65.26
2023-02-03T18:24:01.530Z,65.73
2023-02-03T18:26:32.502Z,65.53
2023-02-03T18:28:59.922Z,64.37
2023-02-03T18:31:27.337Z,64.29
2023-02-03T18:33:55.145Z,64.08
2023-02-03T18:36:22.645Z,63.00
2023-02-03T18:38:50.053Z,62.32
2023-02-03T18:41:18.781Z,62.04
2023-02-03T18:43:46.866Z,62.21
2023-02-03T18:46:16.836Z,62.56
2023-02-03T18:48:44.564Z,61.71
2023-02-03T18:51:13.302Z,62.12
2023-02-03T18:53:40.711Z,61.16
2023-02-03T18:56:09.486Z,60.53
2023-02-03T18:58:37.234Z,60.06
2023-02-03T19:01:04.759Z,62.04
2023-02-03T19:03:32.475Z,63.14
2023-02-03T19:05:59.904Z,63.31
2023-02-03T19:08:27.240Z,65.10
2023-02-03T19:10:55.070Z,66.37
2023-02-03T19:13:22.483Z,67.32
2023-02-03T19:15:49.868Z,67.87
2023-02-03T19:18:17.514Z,68.09
2023-02-03T19:20:44.988Z,67.54
2023-02-03T19:23:12.467Z,69.24
2023-02-03T19:25:40.165Z,69.15
2023-02-03T19:28:14.352Z,67.15
2023-02-03T19:30:45.015Z,66.52
2023-02-03T19:33:12.474Z,68.08
2023-02-03T19:35:40.798Z,69.12
2023-02-03T19:38:08.440Z,68.45
2023-02-03T19:40:35.775Z,68.42
2023-02-03T19:43:04.997Z,65.44
2023-02-03T19:45:32.661Z,65.98
2023-02-03T19:48:00.008Z,64.36
2023-02-03T19:50:27.463Z,64.19
2023-02-03T19:52:55.359Z,62.82
2023-02-03T19:55:22.725Z,64.54
2023-02-03T19:57:50.126Z,65.88
2023-02-03T20:00:17.951Z,65.18
2023-02-03T20:02:46.076Z,64.20
2023-02-03T20:05:13.513Z,66.42
2023-02-03T20:07:42.369Z,64.74
2023-02-03T20:10:10.234Z,66.45
2023-02-03T20:12:37.681Z,66.66
2023-02-03T20:15:05.355Z,67.82
2023-02-03T20:17:33.213Z,68.00
2023-02-03T20:20:00.673Z,67.31
2023-02-03T20:22:27.885Z,68.16
2023-02-03T20:24:55.470Z,65.42
2023-02-03T20:27:22.906Z,65.82
2023-02-03T20:29:50.683Z,65.16
2023-02-03T20:32:18.324Z,65.71
2023-02-03T20:34:46.358Z,64.79
2023-02-03T20:37:13.743Z,63.88
2023-02-03T20:39:41.286Z,62.64
2023-02-03T20:42:16.635Z,62.17
2023-02-03T20:44:44.653Z,63.19
2023-02-03T20:47:12.354Z,64.69
2023-02-03T20:49:39.977Z,64.14
2023-02-03T20:52:11.406Z,62.88
2023-02-03T20:54:39.408Z,63.95
2023-02-03T20:57:17.348Z,63.28
2023-02-03T20:59:45.055Z,61.66
2023-02-03T21:02:22.832Z,62.25
2023-02-03T21:04:57.700Z,61.41
2023-02-03T21:07:30.050Z,61.37
2023-02-03T21:09:58.493Z,58.44
2023-02-03T21:12:26.799Z,57.79
2023-02-03T21:14:55.068Z,57.03
2023-02-03T21:17:23.940Z,58.37
2023-02-03T21:19:51.687Z,57.76
2023-02-03T21:22:26.227Z,58.81
2023-02-03T21:24:54.503Z,58.36
2023-02-03T21:27:32.182Z,58.11
2023-02-03T21:30:00.479Z,58.98
2023-02-03T21:32:34.486Z,58.20
2023-02-03T21:35:02.090Z,59.20
2023-02-03T21:37:35.350Z,59.07
2023-02-03T21:40:33.449Z,59.51
2023-02-03T21:43:03.186Z,60.04
2023-02-03T21:45:35.503Z,62.26
2023-02-03T21:48:23.024Z,61.02
2023-02-03T21:50:50.472Z,61.61
2023-02-03T21:53:23.128Z,59.99
2023-02-03T21:55:50.704Z,61.32
2023-02-03T21:58:20.759Z,60.17
2023-02-03T22:00:48.593Z,60.55
2023-02-03T22:03:24.450Z,63.87
2023-02-03T22:05:51.960Z,62.13
2023-02-03T22:08:22.891Z,60.55
2023-02-03T22:10:50.221Z,61.31
2023-02-03T22:13:17.663Z,62.39
2023-02-03T22:15:45.081Z,60.46
2023-02-03T22:18:12.283Z,59.96
2023-02-03T22:20:39.515Z,62.47
2023-02-03T22:23:06.988Z,62.97
2023-02-03T22:25:34.229Z,62.19
2023-02-03T22:28:01.509Z,62.59
2023-02-03T22:30:29.387Z,62.35
2023-02-03T22:32:58.005Z,61.82
2023-02-03T22:35:25.635Z,62.74
2023-02-03T22:37:53.910Z,62.82
2023-02-03T22:40:21.295Z,61.81
2023-02-03T22:42:48.617Z,61.70
2023-02-03T22:45:16.281Z,60.27
2023-02-03T22:47:43.473Z,62.48
2023-02-03T22:50:11.081Z,63.60
2023-02-03T22:52:38.529Z,63.94
2023-02-03T22:55:06.435Z,62.42
2023-02-03T22:57:33.646Z,62.63
2023-02-03T23:00:01.277Z,62.57
2023-02-03T23:02:28.556Z,62.90
2023-02-03T23:04:55.758Z,62.06
2023-02-03T23:07:23.396Z,61.64
2023-02-03T23:09:50.577Z,63.09
2023-02-03T23:12:17.718Z,63.09
2023-02-03T23:14:45.275Z,61.16
2023-02-03T23:17:12.608Z,61.19
2023-02-03T23:19:39.745Z,61.92
2023-02-03T23:22:07.163Z,62.21
2023-02-03T23:24:34.381Z,63.42
2023-02-03T23:27:01.556Z,61.94
2023-02-03T23:29:28.962Z,62.06
2023-02-03T23:31:56.138Z,63.46
2023-02-03T23:34:41.685Z,63.58
2023-02-03T23:37:09.113Z,62.99
2023-02-03T23:39:36.296Z,61.72
2023-02-03T23:42:03.418Z,62.82
2023-02-03T23:44:30.876Z,63.82
2023-02-03T23:46:58.042Z,62.71
2023-02-03T23:49:25.201Z,62.56
2023-02-03T23:51:52.611Z,61.88
2023-02-03T23:54:19.780Z,63.26
2023-02-03T23:56:46.943Z,61.47
2023-02-03T23:59:14.365Z,61.58
